Pagrindinis puslapis
METAR-TAF:

METAR-TAF

Oro uostai :

Kantas, Vietnamas

platuma: 10-05-07N, ilguma: 105-42-43E, Aukštis: 3 m

Dabartinis oras

Ataskaita buvo paskelbta 1 valandą ir 11 minutes, ne 19:30 UTC
Vėjas 1 kt iš Pietų
Temperatūra 25°C
Drėgmė 100%
Slėgis 1011 hPa
Matomumas: 8000 m
Mažai debesys ne aukštis 1500 ft

METAR: VVCT 171930Z 19001KT 8000 FEW015 25/25 Q1011 NOSIG

Laikas: 03:41 (20:41 UTC)

Prognozė

Ataskaita buvo paskelbta 3 valandos ir 41 minutes, ne 17:00 UTC
Prognozė galioja nuo 17 metu 18 UTC su 18 metu 18 UTC
Vėjas 6 kt iš Pietų/Pietvakarių
Matomumas 10 km arba daugiau
Išsisklaidę debesys ne aukštis 1300 ft
Išsisklaidę debesys ne aukštis 4000 ft
Laikinai
nuo 18 metu 03 UTC su 18 metu 08 UTC
Matomumas: 5000 m
Su prošvaistėmis ne aukštis 1300 ft
Mažai debesys ne aukštis 1500 ft, Liūtiniai kamuoliniai debesys.
lietus

TAF: VVCT 171700Z 1718/1818 20006KT 9999 SCT013 SCT040 TEMPO 1803/1808 5000 SHRA BKN013 FEW015CB

Orai ataskaitas ir orų prognozės (METAR, TAF).

turimą stotys yra geltonos ir raudonos taškus žemėlapyje.

Perkelti pele per norėdami pamatyti stoties vardą.

Tada spustelėkite, norėdami matyti oro stebėjimo ir prognozės.

Norėdami pakeisti žemėlapį: spustelėkite ant žalios mygtukų su juodo kryžiaus žemyn,; žalią mygtuką su brūkšneliu, jei norite nutolinti; arba žalių rodyklių gretimoms žemėlapius.


METAR-TAF: